Time;durP1;ratioP1;P1;durP2;ratioP2;P2;SDS_P1;SDS_P2;PMS_P1;PMS_P2;Temp;Humidity;BMP_temperature;BMP_pressure;BME280_temperature;BME280_humidity;BME280_pressure;Samples;Min_cycle;Max_cycle;Signal;HPM_P1;HPM_P2
2022/11/11 07:33:43;;;;;;;;;11.25;8.00;;;;;12.32;67.72;102916.78;3014616;22;45738;-92
2022/11/11 07:34:53;;;;;;;;;9.25;9.25;;;;;12.35;67.39;102923.78;3040515;22;46806;-91
2022/11/11 07:36:03;;;;;;;;;7.50;6.25;;;;;12.32;67.55;102913.28;3043196;22;45222;-91
2022/11/11 07:37:13;;;;;;;;;8.75;6.75;;;;;12.34;67.56;102920.31;3047349;22;45273;-89
2022/11/11 07:38:24;;;;;;;;;10.00;7.25;;;;;12.36;67.31;102918.53;3058564;22;44706;-89
2022/11/11 07:39:34;;;;;;;;;8.75;8.50;;;;;12.34;67.59;102915.03;3059456;22;45200;-89
2022/11/11 07:40:44;;;;;;;;;9.25;8.75;;;;;12.36;67.34;102912.38;3042873;22;45216;-91
2022/11/11 07:41:55;;;;;;;;;7.75;7.25;;;;;12.36;67.31;102915.88;3046287;22;46267;-88
2022/11/11 07:43:05;;;;;;;;;12.50;8.75;;;;;12.37;67.54;102916.78;3059287;22;45202;-89
2022/11/11 07:44:15;;;;;;;;;8.75;7.50;;;;;12.36;67.47;102918.53;3042272;22;47930;-90
2022/11/11 07:45:26;;;;;;;;;10.25;8.00;;;;;12.36;67.34;102918.53;3048105;22;44621;-90
2022/11/11 07:46:36;;;;;;;;;8.75;8.00;;;;;12.35;67.58;102919.41;3042811;22;45993;-89
2022/11/11 07:47:46;;;;;;;;;7.25;6.75;;;;;12.36;67.52;102912.38;3047485;22;45187;-89
2022/11/11 07:48:57;;;;;;;;;8.50;6.50;;;;;12.37;67.59;102907.06;3058883;22;46104;-88
2022/11/11 07:50:08;;;;;;;;;5.75;5.75;;;;;12.41;67.74;102912.34;3059498;22;45159;-88
2022/11/11 07:51:18;;;;;;;;;8.25;7.50;;;;;12.40;67.06;102914.09;3042728;22;47251;-89
2022/11/11 07:52:29;;;;;;;;;7.75;7.50;;;;;12.43;67.08;102913.19;3047420;22;45168;-88
2022/11/11 07:53:39;;;;;;;;;8.25;8.25;;;;;12.40;67.67;102914.09;3042403;22;47843;-88
2022/11/11 07:54:49;;;;;;;;;7.75;7.00;;;;;12.41;67.22;102915.88;3031852;22;44685;-88
2022/11/11 07:56:00;;;;;;;;;7.25;6.50;;;;;12.43;67.36;102913.19;3047154;22;45694;-89
2022/11/11 07:57:10;;;;;;;;;7.25;7.25;;;;;12.44;67.30;102913.22;3059486;22;45174;-89
2022/11/11 07:58:20;;;;;;;;;6.25;6.25;;;;;12.46;67.29;102918.47;3042272;22;46811;-88
2022/11/11 07:59:30;;;;;;;;;11.00;7.50;;;;;12.46;67.19;102915.84;3047898;22;44666;-89
2022/11/11 08:00:41;;;;;;;;;6.00;5.50;;;;;12.46;67.38;102913.19;3058605;22;45215;-89
2022/11/11 08:01:52;;;;;;;;;10.00;7.75;;;;;12.49;67.14;102923.72;3059379;22;45140;-90
2022/11/11 08:03:02;;;;;;;;;7.50;7.00;;;;;12.49;67.31;102918.47;3042654;22;46842;-89
2022/11/11 08:04:12;;;;;;;;;8.25;6.75;;;;;12.51;66.98;102916.69;3047294;22;45191;-89
2022/11/11 08:05:23;;;;;;;;;6.75;6.50;;;;;12.54;67.26;102918.44;3059281;22;45190;-88
2022/11/11 08:06:33;;;;;;;;;8.50;6.75;;;;;12.52;67.47;102913.13;3058465;22;44703;-89
2022/11/11 08:07:44;;;;;;;;;8.25;6.75;;;;;12.56;67.57;102914.91;3059064;22;46239;-89
2022/11/11 08:08:54;;;;;;;;;8.00;8.00;;;;;12.56;67.07;102916.66;3042850;22;45207;-89
2022/11/11 08:10:05;;;;;;;;;9.25;8.50;;;;;12.57;67.53;102915.75;3031578;22;46998;-88
2022/11/11 08:13:38;;;;;;;;;7.00;6.75;;;;;12.58;67.17;102915.75;3047105;22;45253;-88
2022/11/11 08:14:22;;;;;;;;;8.50;8.50;;;;;12.59;67.33;102928.03;3059672;22;45352;-88
2022/11/11 08:15:32;;;;;;;;;8.00;6.50;;;;;12.59;67.02;102917.50;3059156;22;45386;-89
2022/11/11 08:16:42;;;;;;;;;8.50;7.50;;;;;12.60;67.39;102921.00;3058453;22;44805;-89
2022/11/11 08:17:53;;;;;;;;;7.00;5.75;;;;;12.60;67.32;102921.91;3042109;22;46601;-89
2022/11/11 08:19:03;;;;;;;;;9.50;6.75;;;;;12.60;67.00;102919.25;3046722;22;45268;-89
2022/11/11 08:20:13;;;;;;;;;9.75;9.25;;;;;12.60;67.03;102916.63;3059138;22;45429;-89
2022/11/11 08:21:24;;;;;;;;;8.75;7.75;;;;;12.60;67.13;102918.38;3042774;22;45329;-88
2022/11/11 08:22:36;;;;;;;;;9.00;7.75;;;;;12.60;67.91;102921.00;3047090;22;45291;-89
2022/11/11 08:23:46;;;;;;;;;8.00;8.00;;;;;12.60;67.30;102921.91;3057855;22;44655;-89
2022/11/11 08:24:57;;;;;;;;;8.00;7.50;;;;;12.63;67.68;102928.03;3042078;22;46822;-88
2022/11/11 08:26:08;;;;;;;;;9.75;9.00;;;;;12.63;67.39;102918.38;3047582;22;45209;-89
2022/11/11 08:27:18;;;;;;;;;11.25;9.50;;;;;12.62;67.31;102916.59;3042549;22;47218;-89
2022/11/11 08:28:30;;;;;;;;;8.25;7.25;;;;;12.63;67.04;102915.72;3046561;22;45664;-88
2022/11/11 08:29:41;;;;;;;;;9.50;8.50;;;;;12.65;67.26;102918.34;3058970;22;45297;-89
2022/11/11 08:30:51;;;;;;;;;10.00;9.00;;;;;12.64;67.31;102917.50;3057872;22;45336;-88
2022/11/11 08:32:02;;;;;;;;;8.25;7.50;;;;;12.66;67.03;102913.06;3041916;22;46086;-89
2022/11/11 08:33:12;;;;;;;;;12.00;10.25;;;;;12.66;67.14;102914.84;3031484;22;45314;-89
2022/11/11 08:34:22;;;;;;;;;9.75;8.75;;;;;12.67;67.52;102916.56;3030764;22;46895;-88
2022/11/11 08:35:33;;;;;;;;;7.75;5.50;;;;;12.68;67.51;102920.97;3032195;22;45412;-89
2022/11/11 08:36:43;;;;;;;;;8.00;6.75;;;;;12.69;66.88;102925.38;3031608;22;47973;-89
2022/11/11 08:37:54;;;;;;;;;7.50;7.25;;;;;12.68;67.06;102919.22;3031703;22;44652;-89
2022/11/11 08:39:05;;;;;;;;;9.00;8.00;;;;;12.69;67.02;102920.09;3046947;22;45302;-89
2022/11/11 08:40:15;;;;;;;;;7.25;6.50;;;;;12.68;66.56;102924.50;3057158;22;45315;-90
2022/11/11 08:41:26;;;;;;;;;10.00;7.50;;;;;12.68;66.88;102919.22;3057617;22;46071;-90
2022/11/11 08:42:36;;;;;;;;;9.25;8.00;;;;;12.70;67.35;102924.47;3058112;22;44613;-90
2022/11/11 08:43:46;;;;;;;;;9.00;7.50;;;;;12.70;67.04;102925.34;3043246;22;49711;-89
2022/11/11 08:44:57;;;;;;;;;12.00;8.50;;;;;12.71;66.98;102929.75;3047824;22;44604;-91
2022/11/11 08:46:08;;;;;;;;;8.75;7.50;;;;;12.72;67.15;102930.59;3059479;22;45080;-89
2022/11/11 08:47:19;;;;;;;;;9.00;8.50;;;;;12.75;66.93;102925.31;3059997;22;45154;-89
2022/11/11 08:48:30;;;;;;;;;7.75;7.75;;;;;12.77;67.17;102928.81;3059382;22;45427;-90
2022/11/11 08:49:41;;;;;;;;;6.75;6.75;;;;;12.77;67.06;102927.94;3058126;22;45253;-89
2022/11/11 08:50:52;;;;;;;;;11.25;8.25;;;;;12.78;66.61;102932.34;3059084;22;46099;-89
2022/11/11 08:52:03;;;;;;;;;9.75;8.75;;;;;12.79;67.17;102936.75;3059840;22;45309;-89
2022/11/11 08:53:13;;;;;;;;;9.75;8.25;;;;;12.79;67.14;102939.38;3059937;22;46098;-89
2022/11/11 08:54:23;;;;;;;;;7.50;7.50;;;;;12.81;66.93;102943.75;3058667;22;44691;-89
2022/11/11 08:55:34;;;;;;;;;9.50;8.00;;;;;12.81;67.01;102949.03;3042802;22;47397;-89
2022/11/11 08:56:45;;;;;;;;;12.25;10.00;;;;;12.82;66.88;102948.13;3048474;22;45264;-89
2022/11/11 08:57:59;;;;;;;;;6.75;6.75;;;;;12.82;66.92;102950.78;3058257;22;48312;-89
2022/11/11 08:59:10;;;;;;;;;14.00;12.75;;;;;12.81;66.63;102946.41;3059338;22;44728;-90
2022/11/11 09:00:22;;;;;;;;;11.25;8.75;;;;;12.79;66.60;102948.16;3042494;22;48163;-89
2022/11/11 09:01:33;;;;;;;;;9.25;9.00;;;;;12.79;66.74;102952.56;3032825;22;45282;-89
2022/11/11 09:02:43;;;;;;;;;9.50;8.50;;;;;12.78;67.13;102946.41;3047700;22;45214;-89
2022/11/11 09:03:53;;;;;;;;;10.75;9.25;;;;;12.80;67.07;102949.91;3042847;22;45219;-89
2022/11/11 09:05:05;;;;;;;;;10.25;8.50;;;;;12.81;67.22;102951.69;3047797;22;46267;-88
2022/11/11 09:06:16;;;;;;;;;12.75;9.50;;;;;12.83;66.73;102960.47;3058576;22;44653;-88
2022/11/11 09:07:26;;;;;;;;;11.25;8.50;;;;;12.85;66.99;102954.28;3042700;22;46890;-89
2022/11/11 09:08:37;;;;;;;;;10.50;9.00;;;;;12.83;67.06;102949.91;3048233;22;45285;-90
2022/11/11 09:09:47;;;;;;;;;12.25;9.50;;;;;12.86;67.03;102954.28;3059602;22;45533;-89
2022/11/11 09:10:58;;;;;;;;;7.50;7.50;;;;;12.88;66.84;102951.63;3058111;22;44530;-88
2022/11/11 09:12:09;;;;;;;;;11.75;6.50;;;;;12.89;66.74;102948.97;3042977;22;47486;-89
2022/11/11 09:13:19;;;;;;;;;12.00;8.75;;;;;12.90;66.88;102947.19;3047009;22;44639;-89
2022/11/11 09:14:29;;;;;;;;;10.25;8.00;;;;;12.89;66.51;102950.75;3043030;22;45858;-89
2022/11/11 09:15:40;;;;;;;;;9.50;9.00;;;;;12.91;66.95;102947.19;3042650;22;45528;-87
2022/11/11 09:16:50;;;;;;;;;9.50;6.50;;;;;12.89;66.88;102948.97;3031817;22;48414;-90
2022/11/11 09:18:02;;;;;;;;;7.50;6.75;;;;;12.93;66.69;102957.75;3032009;22;45359;-88
2022/11/11 09:19:12;;;;;;;;;7.25;7.25;;;;;12.94;66.61;102957.72;3047568;22;46074;-89
2022/11/11 09:20:23;;;;;;;;;8.25;8.00;;;;;12.97;66.69;102961.22;3043227;22;45200;-89
2022/11/11 09:21:34;;;;;;;;;8.25;7.25;;;;;12.98;66.43;102955.06;3029678;22;47155;-89
2022/11/11 09:22:45;;;;;;;;;12.50;8.00;;;;;12.97;66.33;102951.53;3047310;22;45395;-89
2022/11/11 09:23:56;;;;;;;;;8.50;6.75;;;;;13.00;66.58;102959.44;3057572;22;46478;-90
2022/11/11 09:25:06;;;;;;;;;6.75;6.00;;;;;13.02;66.56;102951.50;3053681;22;44988;-88
2022/11/11 09:26:17;;;;;;;;;7.75;7.00;;;;;13.02;66.44;102952.38;3031748;22;47835;-88
2022/11/11 09:27:27;;;;;;;;;9.00;8.50;;;;;13.02;66.57;102955.03;3031737;22;45113;-88
2022/11/11 09:28:38;;;;;;;;;5.25;5.25;;;;;13.03;66.07;102954.16;3047481;22;45194;-89
2022/11/11 09:29:48;;;;;;;;;7.00;5.50;;;;;13.04;66.01;102957.66;3059250;22;45106;-88
2022/11/11 09:30:59;;;;;;;;;9.50;8.00;;;;;13.07;66.33;102960.28;3042477;22;47158;-89
2022/11/11 09:32:09;;;;;;;;;4.75;4.75;;;;;13.06;66.12;102945.34;3042549;22;45176;-88
2022/11/11 09:33:20;;;;;;;;;10.25;7.50;;;;;13.08;66.23;102958.50;3031134;22;47085;-88
2022/11/11 09:34:30;;;;;;;;;7.50;7.50;;;;;13.09;66.30;102949.72;3046830;22;45179;-88
2022/11/11 09:35:41;;;;;;;;;7.00;6.00;;;;;13.10;66.21;102954.09;3058882;22;46246;-88
2022/11/11 09:36:51;;;;;;;;;8.25;8.00;;;;;13.13;66.24;102957.59;3042589;22;45254;-89
2022/11/11 09:38:02;;;;;;;;;10.75;8.50;;;;;13.16;66.19;102959.34;3031633;22;47233;-88
2022/11/11 09:39:12;;;;;;;;;8.00;8.00;;;;;13.17;65.94;102953.16;3047100;22;45203;-89
2022/11/11 09:40:25;;;;;;;;;11.50;9.50;;;;;13.16;65.87;102956.69;3053517;22;47143;-89
2022/11/11 09:41:36;;;;;;;;;8.25;7.00;;;;;13.21;66.08;102960.16;3047522;22;45252;-88
2022/11/11 09:43:15;;;;;;;;;10.50;8.50;;;;;13.21;65.99;102957.50;3059037;22;46290;-89
2022/11/11 09:44:28;;;;;;;;;11.25;8.25;;;;;13.20;65.95;102961.06;3055576;22;44761;-88
2022/11/11 09:45:53;;;;;;;;;7.50;7.25;;;;;13.22;65.76;102958.38;3058250;22;46436;-88
2022/11/11 09:47:30;;;;;;;;;8.50;8.50;;;;;13.24;66.13;102961.88;3059144;22;45209;-89
2022/11/11 09:49:05;;;;;;;;;15.00;12.25;;;;;13.27;65.87;102961.88;3058659;22;45360;-89
2022/11/11 09:50:22;;;;;;;;;13.50;12.50;;;;;13.30;66.31;102958.34;3058788;22;45198;-89
2022/11/11 09:51:57;;;;;;;;;16.00;15.75;;;;;13.31;65.88;102962.75;3042378;22;48096;-88
2022/11/11 09:53:21;;;;;;;;;13.75;13.75;;;;;13.31;66.02;102966.22;3053091;22;45193;-89
2022/11/11 09:54:47;;;;;;;;;17.50;13.00;;;;;13.35;66.01;102967.09;3059026;22;45717;-88
2022/11/11 09:56:05;;;;;;;;;21.75;13.00;;;;;13.34;65.87;102962.69;3042512;22;45186;-88
2022/11/11 09:57:33;;;;;;;;;17.00;15.00;;;;;13.37;65.66;102962.66;3033068;22;46769;-88
2022/11/11 09:58:52;;;;;;;;;14.50;11.75;;;;;13.37;65.80;102965.31;3035382;22;44815;-89
2022/11/11 10:00:13;;;;;;;;;14.75;12.50;;;;;13.36;65.57;102967.06;3048429;22;46107;-87
2022/11/11 10:01:28;;;;;;;;;9.25;9.00;;;;;13.36;65.82;102967.06;3042629;22;45263;-88
2022/11/11 10:02:45;;;;;;;;;15.00;13.00;;;;;13.36;65.78;102969.72;3032304;22;47049;-88
2022/11/11 10:04:12;;;;;;;;;14.75;14.00;;;;;13.38;65.74;102970.56;3048737;22;45171;-88
2022/11/11 10:05:45;;;;;;;;;9.75;8.75;;;;;13.37;65.65;102973.22;3042343;22;46920;-88
2022/11/11 10:07:24;;;;;;;;;11.00;10.25;;;;;13.38;65.78;102977.63;3036960;22;45098;-89
2022/11/11 10:09:13;;;;;;;;;9.50;9.50;;;;;13.41;65.37;102977.59;3038371;22;46903;-87
2022/11/11 10:10:48;;;;;;;;;12.75;11.75;;;;;13.44;65.40;102981.97;2979787;23;45201;-88
2022/11/11 10:12:15;;;;;;;;;10.50;10.00;;;;;13.45;65.30;102981.09;2977322;23;47215;-87
2022/11/11 10:13:30;;;;;;;;;11.50;9.25;;;;;13.46;65.40;102982.81;2990873;22;44611;-88
2022/11/11 10:14:48;;;;;;;;;8.75;7.50;;;;;13.47;65.01;102982.84;2983164;23;47222;-89
2022/11/11 10:16:50;;;;;;;;;8.25;8.25;;;;;13.46;64.99;102977.53;3010526;22;45226;-88
2022/11/11 10:18:24;;;;;;;;;11.75;9.00;;;;;13.46;65.10;102985.47;2997394;22;48584;-89
2022/11/11 10:19:51;;;;;;;;;9.00;7.00;;;;;13.46;65.28;102980.19;2998582;22;45272;-89
2022/11/11 10:21:09;;;;;;;;;9.00;9.00;;;;;13.46;65.24;102980.19;2998366;22;45325;-88
2022/11/11 10:22:25;;;;;;;;;6.00;6.00;;;;;13.46;65.15;102978.44;2998707;22;45225;-88
2022/11/11 10:23:36;;;;;;;;;8.25;8.00;;;;;13.48;64.99;102978.44;3024166;22;47345;-88
2022/11/11 10:25:12;;;;;;;;;8.50;8.00;;;;;13.48;64.63;102976.63;3047994;22;44519;-88
2022/11/11 10:26:38;;;;;;;;;9.00;8.00;;;;;13.47;64.72;102980.19;3041793;22;46516;-88
2022/11/11 10:27:53;;;;;;;;;8.50;7.75;;;;;13.49;64.90;102977.53;3043147;22;44625;-88
2022/11/11 10:29:12;;;;;;;;;7.75;7.75;;;;;13.48;64.76;102981.91;3042947;22;48047;-88
2022/11/11 10:30:27;;;;;;;;;9.00;9.00;;;;;13.49;64.58;102973.13;3033834;22;45245;-89
2022/11/11 10:31:41;;;;;;;;;7.25;6.25;;;;;13.52;64.16;102973.97;3048222;22;47103;-89
2022/11/11 10:33:03;;;;;;;;;11.25;8.00;;;;;13.51;64.60;102967.81;3058757;22;44715;-88
2022/11/11 10:34:17;;;;;;;;;9.50;8.75;;;;;13.54;64.65;102977.47;3058598;22;45223;-88
2022/11/11 10:35:32;;;;;;;;;11.25;6.00;;;;;13.53;64.78;102973.09;3043181;22;44635;-88
2022/11/11 10:36:47;;;;;;;;;10.75;10.25;;;;;13.54;64.79;102969.56;3033018;22;48042;-88
2022/11/11 10:38:30;;;;;;;;;8.75;8.00;;;;;13.55;64.86;102969.56;3049389;22;45282;-88
2022/11/11 10:39:55;;;;;;;;;11.50;9.00;;;;;13.57;64.79;102966.91;3059438;22;46259;-88
2022/11/11 10:41:17;;;;;;;;;11.75;9.00;;;;;13.61;64.43;102968.63;3059870;22;44486;-88
2022/11/11 10:42:27;;;;;;;;;10.25;9.00;;;;;13.60;64.44;102959.84;3059301;22;45228;-87
2022/11/11 10:43:37;;;;;;;;;9.75;9.00;;;;;13.61;64.34;102964.22;3059627;22;45158;-88
2022/11/11 10:44:48;;;;;;;;;9.25;7.75;;;;;13.65;64.55;102962.44;3042802;22;47873;-88
2022/11/11 10:46:12;;;;;;;;;8.75;8.50;;;;;13.68;64.37;102964.19;3043259;22;45150;-88
2022/11/11 10:47:41;;;;;;;;;7.50;7.25;;;;;13.71;64.56;102970.28;3034175;22;48153;-88
2022/11/11 10:48:54;;;;;;;;;8.50;6.50;;;;;13.73;64.55;102973.78;3035777;22;45175;-87
2022/11/11 10:50:35;;;;;;;;;7.00;5.50;;;;;13.76;64.61;102972.00;3032525;22;47298;-89
2022/11/11 10:51:53;;;;;;;;;9.75;8.25;;;;;13.78;64.66;102960.53;3053392;22;45238;-88
2022/11/11 10:53:16;;;;;;;;;8.25;7.75;;;;;13.80;64.36;102960.53;3058051;22;45314;-85
2022/11/11 10:54:40;;;;;;;;;10.00;9.25;;;;;13.86;63.93;102965.72;3059111;22;45222;-85
2022/11/11 10:56:12;;;;;;;;;10.75;8.00;;;;;13.88;64.18;102965.75;3057289;22;47151;-87
2022/11/11 10:57:35;;;;;;;;;7.00;7.00;;;;;13.90;63.95;102967.44;3048905;22;45413;-87
2022/11/11 10:59:21;;;;;;;;;9.50;6.75;;;;;13.91;64.13;102968.31;3033880;22;46889;-87
2022/11/11 11:00:33;;;;;;;;;8.25;7.50;;;;;13.92;63.81;102972.72;3056156;22;45305;-88
2022/11/11 11:02:18;;;;;;;;;11.00;9.25;;;;;13.92;63.75;102970.97;3055020;22;46991;-87
2022/11/11 11:03:35;;;;;;;;;8.00;8.00;;;;;13.91;63.71;102969.19;3014110;22;45531;-88
2022/11/11 11:04:52;;;;;;;;;9.75;8.75;;;;;13.93;63.75;102971.81;3049294;22;45194;-88
2022/11/11 11:06:12;;;;;;;;;11.25;10.25;;;;;13.95;63.98;102967.41;3043119;22;45444;-88
2022/11/11 11:07:34;;;;;;;;;10.25;9.00;;;;;13.97;64.08;102962.97;3042056;22;47799;-88
2022/11/11 11:08:48;;;;;;;;;12.00;9.75;;;;;13.98;63.75;102948.84;3050665;22;45203;-88
2022/11/11 11:10:04;;;;;;;;;9.50;7.00;;;;;14.03;63.85;102959.38;3058098;22;46761;-88
2022/11/11 11:11:34;;;;;;;;;9.50;8.00;;;;;14.06;63.30;102956.69;3059221;22;45201;-87
2022/11/11 11:12:54;;;;;;;;;10.50;8.25;;;;;14.09;63.21;102950.50;3040775;22;47024;-87
2022/11/11 11:14:29;;;;;;;;;7.50;7.50;;;;;14.11;63.25;102946.94;3041977;22;44778;-87
2022/11/11 11:15:48;;;;;;;;;6.00;4.25;;;;;14.13;63.29;102952.19;3037182;22;48148;-86
2022/11/11 11:17:08;;;;;;;;;9.00;8.75;;;;;14.15;63.46;102946.00;3033804;22;44494;-91
2022/11/11 11:18:19;;;;;;;;;8.00;7.75;;;;;14.16;63.42;102947.75;3033671;22;47773;-88
2022/11/11 11:19:29;;;;;;;;;10.75;8.50;;;;;14.18;63.47;102937.16;3047538;22;45213;-88
2022/11/11 11:21:00;;;;;;;;;9.25;8.00;;;;;14.23;63.32;102937.09;3042807;22;47716;-88
2022/11/11 11:22:11;;;;;;;;;14.25;10.00;;;;;14.25;63.66;102941.47;3051428;22;45191;-87
2022/11/11 11:23:41;;;;;;;;;10.75;9.00;;;;;14.28;62.65;102937.91;3058757;22;46287;-87
2022/11/11 11:25:10;;;;;;;;;9.75;8.75;;;;;14.31;63.27;102942.28;3043054;22;44738;-87
2022/11/11 11:26:20;;;;;;;;;8.75;8.25;;;;;14.31;63.28;102945.81;3051386;22;45644;-88
2022/11/11 11:27:30;;;;;;;;;9.75;9.75;;;;;14.34;63.23;102945.78;3059241;22;45266;-87
2022/11/11 11:28:54;;;;;;;;;14.00;10.25;;;;;14.35;63.02;102944.88;3059252;22;46329;-87
2022/11/11 11:30:13;;;;;;;;;5.50;5.50;;;;;14.37;63.09;102943.06;3041815;22;45176;-87
2022/11/11 11:31:36;;;;;;;;;7.75;6.50;;;;;14.39;63.23;102945.72;3048700;22;45354;-87
2022/11/11 11:33:06;;;;;;;;;12.25;8.50;;;;;14.41;63.15;102933.31;3041874;22;44695;-87
2022/11/11 11:34:17;;;;;;;;;10.00;8.50;;;;;14.42;63.12;102927.13;3041376;22;46590;-86
2022/11/11 11:35:43;;;;;;;;;8.75;8.75;;;;;14.45;62.99;102931.50;3047067;22;45223;-86
2022/11/11 11:37:00;;;;;;;;;12.00;9.50;;;;;14.48;63.40;102931.47;3058948;22;45266;-86
2022/11/11 11:38:12;;;;;;;;;11.50;9.50;;;;;14.51;63.08;102934.06;3043013;22;45372;-87
2022/11/11 11:39:37;;;;;;;;;8.75;7.75;;;;;14.52;62.92;102922.56;3042832;22;48060;-86
2022/11/11 11:40:55;;;;;;;;;13.75;9.50;;;;;14.54;62.83;102933.16;3050808;22;45286;-87
2022/11/11 11:42:06;;;;;;;;;8.50;5.75;;;;;14.56;62.91;102924.31;3041921;22;47021;-87
2022/11/11 11:43:37;;;;;;;;;10.00;8.50;;;;;14.57;62.55;102926.03;3032142;22;45203;-87
2022/11/11 11:44:47;;;;;;;;;10.75;8.50;;;;;14.61;62.50;102925.09;3051140;22;47019;-86
2022/11/11 11:45:59;;;;;;;;;13.50;9.25;;;;;14.60;62.34;102923.34;3042449;22;45580;-86
2022/11/11 11:47:19;;;;;;;;;11.25;8.75;;;;;14.63;62.82;102920.66;3048024;22;46485;-86
2022/11/11 11:48:35;;;;;;;;;11.25;9.50;;;;;14.67;62.46;102920.63;3059260;22;44583;-86
2022/11/11 11:50:10;;;;;;;;;14.75;8.25;;;;;14.68;61.91;102911.75;3059194;22;46291;-87
2022/11/11 11:51:32;;;;;;;;;8.50;7.75;;;;;14.69;61.87;102913.53;3058299;22;45135;-87
2022/11/11 11:53:12;;;;;;;;;9.50;9.50;;;;;14.67;62.16;102912.69;3040548;22;47139;-87
2022/11/11 11:54:36;;;;;;;;;10.00;9.00;;;;;14.66;62.00;102910.91;3042807;22;45195;-86
2022/11/11 11:55:58;;;;;;;;;10.50;10.00;;;;;14.66;61.76;102901.22;3050090;22;45508;-88
2022/11/11 11:57:24;;;;;;;;;9.00;8.50;;;;;14.67;62.14;102912.69;3042846;22;45193;-86
2022/11/11 11:58:34;;;;;;;;;11.25;9.75;;;;;14.67;62.07;102912.69;3034877;22;47397;-87
2022/11/11 11:59:50;;;;;;;;;8.25;8.25;;;;;14.65;62.03;102907.41;3047841;22;45237;-86
2022/11/11 12:01:28;;;;;;;;;13.00;9.25;;;;;14.65;62.28;102903.88;3059140;22;46197;-86
2022/11/11 12:02:47;;;;;;;;;10.00;9.25;;;;;14.65;62.44;102910.03;3059071;22;45128;-86
2022/11/11 12:04:03;;;;;;;;;8.00;5.75;;;;;14.64;62.65;102903.03;3059058;22;45172;-86
2022/11/11 12:05:40;;;;;;;;;14.25;11.75;;;;;14.65;62.25;102909.16;3042832;22;45227;-87
2022/11/11 12:06:53;;;;;;;;;15.00;10.75;;;;;14.63;61.91;102906.53;3053311;22;46281;-86
2022/11/11 12:08:38;;;;;;;;;10.25;9.25;;;;;14.59;61.86;102912.78;3042521;22;44675;-87
2022/11/11 12:09:57;;;;;;;;;11.50;10.25;;;;;14.55;61.84;102908.44;3042409;22;47180;-86
2022/11/11 12:11:42;;;;;;;;;10.00;9.50;;;;;14.47;61.95;102912.06;3034075;22;45251;-86
2022/11/11 12:12:58;;;;;;;;;13.00;10.75;;;;;14.46;62.37;102909.44;3039180;22;47181;-87
2022/11/11 12:14:27;;;;;;;;;11.75;10.75;;;;;14.43;62.48;102909.47;3049386;22;45262;-86
2022/11/11 12:15:46;;;;;;;;;12.00;10.00;;;;;14.38;62.59;102899.84;3042770;22;48152;-87
2022/11/11 12:17:09;;;;;;;;;9.75;9.00;;;;;14.38;62.83;102904.25;3049876;22;45125;-87
2022/11/11 12:18:38;;;;;;;;;14.00;11.00;;;;;14.38;63.19;102906.91;3058754;22;45405;-86
2022/11/11 12:20:16;;;;;;;;;10.25;7.50;;;;;14.34;62.95;102900.81;3059564;22;45104;-87
2022/11/11 12:21:36;;;;;;;;;10.25;6.50;;;;;14.34;62.85;102900.81;3042373;22;47099;-86
2022/11/11 12:23:03;;;;;;;;;10.75;8.00;;;;;14.32;62.48;102897.28;3049055;22;44511;-86
2022/11/11 12:24:58;;;;;;;;;13.75;9.25;;;;;14.28;62.90;102892.94;3042555;22;46334;-87
2022/11/11 12:26:17;;;;;;;;;12.00;9.75;;;;;14.27;63.11;102896.50;2997603;22;45482;-86
2022/11/11 12:27:58;;;;;;;;;11.50;10.25;;;;;14.23;62.75;102887.72;2998036;22;45476;-86
2022/11/11 12:29:47;;;;;;;;;8.75;8.75;;;;;14.20;63.20;102886.91;3059392;22;45112;-87
2022/11/11 12:31:09;;;;;;;;;13.75;12.00;;;;;14.12;63.30;102879.94;3058865;22;45285;-86
2022/11/11 12:32:47;;;;;;;;;10.75;8.75;;;;;14.10;63.34;102881.72;3042286;22;45275;-87
2022/11/11 12:34:26;;;;;;;;;17.00;14.00;;;;;14.03;63.34;102878.28;3052665;22;45231;-87
2022/11/11 12:36:12;;;;;;;;;11.75;10.00;;;;;14.01;63.48;102879.19;3042737;22;45275;-86
2022/11/11 12:37:28;;;;;;;;;13.25;12.25;;;;;13.98;63.60;102881.88;3054925;22;47144;-85
2022/11/11 12:39:08;;;;;;;;;10.75;10.25;;;;;13.94;63.40;102875.75;3042558;22;44597;-87
2022/11/11 12:40:23;;;;;;;;;8.50;8.50;;;;;13.92;63.78;102877.56;3053996;22;46692;-87
2022/11/11 12:41:43;;;;;;;;;11.75;11.25;;;;;13.90;63.74;102872.28;3058441;22;45239;-87
2022/11/11 12:43:13;;;;;;;;;9.25;8.75;;;;;13.88;63.99;102866.13;3059184;22;45351;-87
2022/11/11 12:44:55;;;;;;;;;11.50;10.75;;;;;13.88;64.07;102871.44;3058796;22;45143;-87
2022/11/11 12:46:27;;;;;;;;;13.25;10.00;;;;;13.90;64.16;102871.44;3013910;22;45460;-87
2022/11/11 12:48:19;;;;;;;;;12.50;12.00;;;;;13.88;64.18;102871.44;3058676;22;44530;-86
2022/11/11 12:49:38;;;;;;;;;12.25;11.50;;;;;13.88;64.30;102860.84;3042292;22;45947;-87
2022/11/11 12:51:08;;;;;;;;;14.50;13.75;;;;;13.88;64.42;102857.34;3033124;22;45168;-87
2022/11/11 12:52:24;;;;;;;;;13.75;12.25;;;;;13.87;64.42;102850.31;3035349;22;48020;-87
2022/11/11 12:54:02;;;;;;;;;10.00;10.00;;;;;13.86;64.32;102860.00;3032109;22;44715;-87
2022/11/11 12:55:29;;;;;;;;;11.25;11.00;;;;;13.85;63.98;102855.63;3051580;22;47902;-88
2022/11/11 12:56:42;;;;;;;;;13.25;12.00;;;;;13.85;64.43;102855.63;3057566;22;45186;-89
2022/11/11 12:58:00;;;;;;;;;10.50;8.25;;;;;13.86;64.57;102857.34;3040792;22;46980;-88
2022/11/11 12:59:39;;;;;;;;;14.00;11.25;;;;;13.83;64.43;102837.13;3048085;22;45199;-87
2022/11/11 13:01:01;;;;;;;;;14.75;12.50;;;;;13.84;64.41;102841.53;3058863;22;46283;-86
2022/11/11 13:02:40;;;;;;;;;13.50;12.00;;;;;13.87;64.25;102837.09;3057134;22;45420;-88
2022/11/11 13:04:02;;;;;;;;;13.50;13.50;;;;;13.85;64.74;102839.75;3036640;22;45459;-88
2022/11/11 13:05:49;;;;;;;;;14.50;12.75;;;;;13.86;64.58;102836.22;3042429;22;45245;-88
2022/11/11 13:07:12;;;;;;;;;9.00;9.00;;;;;13.86;64.85;102837.97;3055542;22;45443;-87
2022/11/11 13:08:55;;;;;;;;;14.00;11.50;;;;;13.84;64.67;102843.28;3042090;22;44652;-88
2022/11/11 13:10:22;;;;;;;;;10.50;9.00;;;;;13.81;64.62;102840.69;3054487;22;46487;-88
2022/11/11 13:12:02;;;;;;;;;11.25;9.25;;;;;13.80;64.80;102837.16;3055885;22;45380;-87
2022/11/11 13:13:50;;;;;;;;;11.75;8.75;;;;;13.80;64.57;102831.88;3042402;22;47035;-88
2022/11/11 13:15:29;;;;;;;;;11.75;9.75;;;;;13.81;64.64;102831.00;3055756;22;45349;-87
2022/11/11 13:16:40;;;;;;;;;16.25;11.50;;;;;13.79;64.74;102829.25;3037285;22;46312;-88
2022/11/11 13:17:51;;;;;;;;;11.50;10.25;;;;;13.80;64.82;102831.03;3041636;22;44586;-88
2022/11/11 13:19:03;;;;;;;;;11.75;11.75;;;;;13.81;64.63;102830.09;3041755;22;47058;-87
2022/11/11 13:20:34;;;;;;;;;13.00;10.00;;;;;13.81;64.87;102830.09;3047405;22;45404;-87
2022/11/11 13:21:57;;;;;;;;;9.50;8.75;;;;;13.79;64.68;102827.50;3058696;22;46169;-87
2022/11/11 13:23:09;;;;;;;;;13.00;10.75;;;;;13.76;64.61;102813.44;3059823;22;45163;-88
2022/11/11 13:24:22;;;;;;;;;15.00;14.00;;;;;13.78;64.75;102817.81;3043000;22;47234;-87
2022/11/11 13:25:36;;;;;;;;;10.25;10.25;;;;;13.79;64.66;102818.69;3032342;22;45326;-88
2022/11/11 13:27:12;;;;;;;;;10.50;7.25;;;;;13.79;64.64;102821.31;3047778;22;45379;-88
2022/11/11 13:28:36;;;;;;;;;14.75;11.75;;;;;13.76;64.97;102818.72;3043278;22;45105;-88
2022/11/11 13:30:16;;;;;;;;;14.50;10.50;;;;;13.79;64.74;102818.69;3034553;22;48152;-87
2022/11/11 13:31:34;;;;;;;;;12.50;12.00;;;;;13.79;64.73;102823.97;3042946;22;44561;-87
2022/11/11 13:32:49;;;;;;;;;16.00;13.25;;;;;13.77;64.75;102820.47;3033557;22;47879;-87
2022/11/11 13:34:09;;;;;;;;;13.50;11.75;;;;;13.76;65.05;102819.59;3032739;22;45204;-87
2022/11/11 13:35:34;;;;;;;;;15.50;12.25;;;;;13.78;64.88;102820.44;3033849;22;47852;-87
2022/11/11 13:36:53;;;;;;;;;13.75;11.00;;;;;13.80;64.98;102812.53;3051036;22;45250;-88
2022/11/11 13:38:03;;;;;;;;;16.00;11.75;;;;;13.77;65.00;102809.91;3042780;22;46947;-88
2022/11/11 13:39:45;;;;;;;;;13.25;12.75;;;;;13.80;65.15;102812.53;3043096;22;44686;-88
2022/11/11 13:40:59;;;;;;;;;12.50;12.25;;;;;13.79;64.96;102811.63;3036148;22;47975;-87